Gabby Miller — WDE3399 — position and weather

sailwx.info

Track history (hours):
 
Tides and Currents Weather Stations Pressure Air Temp Water Temp Dewpoint Dewpoint Depression Visibility Wind Speed Wind Dir Waves Ship Positions

Gabby Miller

Owner: Miller's Launch, Staten Island, NY. More information available from US FCC via Universal Licensing System and Coast Guard Vessel Documentation Center.

Last reported at 2017-Oct-19 20:00 UTC. Time now 2017-Oct-20 14:14 UTC.
Position N 40°39' W 074°03'.

Length 5 m; draft 2 m.

Type: Other ship. MMSI: 367338610.

Date/timePositionNaut miles runAvg speedWind from/ knotsBaromVisibWave heightAir tempDewpointWater temp
2017-Oct-19 20:00N 40°39' W 074°03'2 4.6
2017-Oct-19 19:30N 40°40' W 074°01'0 0.1
2017-Oct-19 19:00N 40°40' W 074°01'0 0.0
2017-Oct-19 18:30N 40°40' W 074°01'0 0.0
2017-Oct-19 18:00N 40°40' W 074°01'0 0.0
2017-Oct-19 17:31N 40°40' W 074°01'0 0.0
2017-Oct-19 17:00N 40°40' W 074°01'1 2.9
2017-Oct-19 16:30N 40°41' W 074°02'1 2.9
2017-Oct-19 16:00N 40°43' W 074°01'2 3.5
2017-Oct-19 15:31N 40°41' W 074°02'3 6.0
2017-Oct-19 15:00N 40°38' W 074°04'0 0.7
2017-Oct-19 14:28N 40°38' W 074°04'0 0.1
2017-Oct-19 14:00N 40°38' W 074°04'0 0.9
2017-Oct-19 13:29N 40°39' W 074°04'3 6.8
2017-Oct-19 13:00N 40°41' W 074°02'2 4.1
2017-Oct-19 12:30N 40°44' W 074°02'0 0.2
2017-Oct-19 12:01N 40°44' W 074°02'0 0.5
2017-Oct-19 11:30N 40°43' W 074°02'3 5.9
2017-Oct-19 11:00N 40°41' W 074°02'3 5.2
2017-Oct-19 10:30N 40°38' W 074°04'0 0.0
2017-Oct-18 18:52N 40°38' W 074°04'0 0.1
2017-Oct-18 18:29N 40°38' W 074°04'1 2.7
2017-Oct-18 18:00N 40°39' W 074°04'2 4.4
2017-Oct-18 17:30N 40°41' W 074°03'2 4.7
2017-Oct-18 17:00N 40°39' W 074°04'1 1.7
2017-Oct-18 16:21N 40°38' W 074°04'0 0.0
2017-Oct-18 15:58N 40°38' W 074°04'1 2.5
2017-Oct-18 15:30N 40°39' W 074°04'2 4.6
2017-Oct-18 15:00N 40°41' W 074°03'3 3.4
2017-Oct-18 14:00N 40°38' W 074°04'0 0.2
2017-Oct-18 13:30N 40°38' W 074°04'3 5.9
2017-Oct-18 13:00N 40°41' W 074°03'1 1.2
2017-Oct-18 12:30N 40°41' W 074°03'2 3.3
2017-Oct-18 12:01N 40°40' W 074°03'2 0.1
2017-Oct-17 14:55N 40°38' W 074°04'0 1.1
2017-Oct-17 14:28N 40°39' W 074°04'3 5.6
2017-Oct-17 14:00N 40°41' W 074°03'1 2.3
2017-Oct-17 13:29N 40°42' W 074°04'1 1.9
2017-Oct-17 13:00N 40°41' W 074°03'0 0.0
2017-Oct-17 12:30N 40°41' W 074°03'1 1.9
2017-Oct-17 12:00N 40°42' W 074°04'2 3.9
2017-Oct-17 11:30N 40°40' W 074°03'2 4.1
2017-Oct-17 11:00N 40°38' W 074°04'0 0.0
2017-Oct-16 22:51N 40°38' W 074°04'1 4.4
2017-Oct-16 22:31N 40°40' W 074°04'3 6.2
2017-Oct-16 22:01N 40°42' W 074°02'1 2.4
2017-Oct-16 21:31N 40°43' W 074°02'0 0.2
2017-Oct-16 21:00N 40°43' W 074°02'0 0.0
2017-Oct-16 20:31N 40°43' W 074°02'0 0.0
2017-Oct-16 20:01N 40°43' W 074°02'0 0.0
2017-Oct-16 19:31N 40°43' W 074°02'0 0.2
2017-Oct-16 19:01N 40°43' W 074°02'0 0.3
2017-Oct-16 18:30N 40°43' W 074°02'0 0.0
2017-Oct-16 18:01N 40°43' W 074°02'0 0.1
2017-Oct-16 17:31N 40°44' W 074°02'2 4.1
2017-Oct-16 17:01N 40°42' W 074°03'0 0.3
2017-Oct-16 16:30N 40°42' W 074°03'0 0.0
2017-Oct-16 16:01N 40°41' W 074°03'0 0.0
2017-Oct-16 15:31N 40°41' W 074°03'0 0.0
2017-Oct-16 15:01N 40°42' W 074°03'3 3.1
2017-Oct-16 13:54N 40°38' W 074°04'0 0.0
2017-Oct-14 16:54N 40°38' W 074°04'0 0.0
2017-Oct-14 16:30N 40°38' W 074°04'0 0.0
2017-Oct-14 16:00N 40°38' W 074°04'0 0.0
2017-Oct-14 15:30N 40°38' W 074°04'0 0.0
2017-Oct-14 15:00N 40°38' W 074°04'0 0.0
2017-Oct-14 14:30N 40°38' W 074°04'0 0.0
2017-Oct-14 14:00N 40°38' W 074°04'0 0.0
2017-Oct-14 13:30N 40°38' W 074°04'0 0.0
2017-Oct-14 13:00N 40°38' W 074°04'0 0.0
2017-Oct-14 12:28N 40°38' W 074°04'0 0.0
2017-Oct-14 11:58N 40°38' W 074°04'0 0.0
2017-Oct-14 11:30N 40°38' W 074°04'0 0.0
2017-Oct-14 10:59N 40°38' W 074°04'0 0.0
2017-Oct-14 10:21N 40°38' W 074°04'0 0.0
2017-Oct-14 09:50N 40°38' W 074°04'0 0.0
2017-Oct-14 09:28N 40°38' W 074°04'0 0.0
2017-Oct-14 08:57N 40°38' W 074°04'0 0.0
2017-Oct-14 08:30N 40°38' W 074°04'0 0.0
2017-Oct-14 08:00N 40°38' W 074°04'0 0.0
2017-Oct-14 07:30N 40°38' W 074°04'0 0.0
2017-Oct-14 07:00N 40°38' W 074°04'0 0.0
2017-Oct-14 06:15N 40°38' W 074°04'0 0.0
2017-Oct-14 05:59N 40°38' W 074°04'0 0.0
2017-Oct-14 05:29N 40°38' W 074°04'0 0.0
2017-Oct-14 04:59N 40°38' W 074°04'0 0.0
2017-Oct-14 04:30N 40°38' W 074°04'0 0.0
2017-Oct-14 04:00N 40°38' W 074°04'0 0.0
2017-Oct-14 03:29N 40°38' W 074°04'0 0.0
2017-Oct-14 02:58N 40°38' W 074°04'0 0.0
2017-Oct-14 02:26N 40°38' W 074°04'0 0.0
2017-Oct-14 01:57N 40°38' W 074°04'0 0.0
2017-Oct-14 01:27N 40°38' W 074°04'0 0.0
2017-Oct-14 00:58N 40°38' W 074°04'0 0.0
2017-Oct-14 00:26N 40°38' W 074°04'0 0.0
2017-Oct-13 23:10N 40°38' W 074°04'0 0.0
2017-Oct-13 22:59N 40°38' W 074°04'0 0.0
2017-Oct-13 22:29N 40°38' W 074°04'0 0.0
2017-Oct-13 21:59N 40°38' W 074°04'0 0.0
2017-Oct-13 21:30N 40°38' W 074°04'0 0.0
2017-Oct-13 20:59N 40°38' W 074°04'0 0.0
2017-Oct-13 20:29N 40°38' W 074°04'0 0.0
2017-Oct-13 20:00N 40°38' W 074°04'0 0.0
2017-Oct-13 19:30N 40°38' W 074°04'0 0.0
2017-Oct-13 18:59N 40°38' W 074°04'0 0.0
2017-Oct-13 18:29N 40°38' W 074°04'0 0.0
2017-Oct-13 17:59N 40°38' W 074°04'0 0.0
2017-Oct-13 17:30N 40°38' W 074°04'0 0.0
2017-Oct-13 17:00N 40°38' W 074°04'0 0.0
2017-Oct-13 16:30N 40°38' W 074°04'0 0.2
2017-Oct-13 16:00N 40°38' W 074°04'0 0.2
2017-Oct-13 15:30N 40°38' W 074°04'0 0.1
2017-Oct-13 14:59N 40°38' W 074°04'0 0.0
2017-Oct-13 14:28N 40°38' W 074°04'0 0.2
2017-Oct-13 14:00N 40°38' W 074°04'0 0.1
2017-Oct-13 13:28N 40°38' W 074°04'0 0.0
2017-Oct-13 12:59N 40°38' W 074°04'0 0.0
2017-Oct-13 12:30N 40°38' W 074°04'0 0.0
2017-Oct-13 09:27N 40°38' W 074°04'0 0.0
2017-Oct-13 09:00N 40°38' W 074°04'0 0.0
2017-Oct-13 08:30N 40°38' W 074°04'0 0.0
2017-Oct-13 08:00N 40°38' W 074°04'0 0.0
2017-Oct-13 07:30N 40°38' W 074°04'0 0.0
2017-Oct-13 07:00N 40°38' W 074°04'0 0.0
2017-Oct-13 06:30N 40°38' W 074°04'0 0.0
2017-Oct-13 06:00N 40°38' W 074°04'0 0.0
2017-Oct-13 05:30N 40°38' W 074°04'0 0.0
2017-Oct-13 05:00N 40°38' W 074°04'0 0.0
2017-Oct-13 04:30N 40°38' W 074°04'0 0.0
2017-Oct-13 03:59N 40°38' W 074°04'0 0.0
2017-Oct-13 03:29N 40°38' W 074°04'0 0.0
2017-Oct-13 03:00N 40°38' W 074°04'0 0.0
2017-Oct-13 02:30N 40°38' W 074°04'0 0.0
2017-Oct-13 01:58N 40°38' W 074°04'0 0.0
2017-Oct-13 01:30N 40°38' W 074°04'0 0.0
2017-Oct-13 00:56N 40°38' W 074°04'0 0.0
2017-Oct-13 00:29N 40°38' W 074°04'0 0.0
2017-Oct-12 23:56N 40°38' W 074°04'0 0.0
2017-Oct-12 23:30N 40°38' W 074°04'0 0.0
2017-Oct-12 23:00N 40°38' W 074°04'0 0.0
2017-Oct-12 22:29N 40°38' W 074°04'0 0.0
2017-Oct-12 21:57N 40°38' W 074°04'0 0.0
2017-Oct-12 21:30N 40°38' W 074°04'0 0.0
2017-Oct-12 21:00N 40°38' W 074°04'0 0.0
2017-Oct-12 20:30N 40°38' W 074°04'0 0.0
2017-Oct-12 20:00N 40°38' W 074°04'0 0.0
2017-Oct-12 19:30N 40°38' W 074°04'0 0.0
2017-Oct-12 19:00N 40°38' W 074°04'0 0.0
2017-Oct-12 18:30N 40°38' W 074°04'0 0.0
2017-Oct-12 18:00N 40°38' W 074°04'0 0.0
2017-Oct-12 17:30N 40°38' W 074°04'0 0.0
2017-Oct-12 17:00N 40°38' W 074°04'0 0.0
2017-Oct-12 16:30N 40°38' W 074°04'0 0.0
2017-Oct-12 16:00N 40°38' W 074°04'0 0.0
2017-Oct-12 15:30N 40°38' W 074°04'0 0.0
2017-Oct-12 14:59N 40°38' W 074°04'0 0.0
2017-Oct-12 14:30N 40°38' W 074°04'0 0.0
2017-Oct-12 14:00N 40°38' W 074°04'0 0.0
2017-Oct-12 13:29N 40°38' W 074°04'0 0.0
2017-Oct-12 12:59N 40°38' W 074°04'0 0.0
2017-Oct-12 12:30N 40°38' W 074°04'0 0.0
2017-Oct-12 12:00N 40°38' W 074°04'0 0.0
2017-Oct-12 11:28N 40°38' W 074°04'0 0.0
2017-Oct-12 10:57N 40°38' W 074°04'0 0.0
2017-Oct-12 10:30N 40°38' W 074°04'0 0.0
2017-Oct-12 09:58N 40°38' W 074°04'0 0.0
2017-Oct-12 09:28N 40°38' W 074°04'0 0.0
2017-Oct-12 08:58N 40°38' W 074°04'0 0.0
2017-Oct-12 08:19N 40°38' W 074°04'0 0.0
2017-Oct-12 07:56N 40°38' W 074°04'0 0.0
2017-Oct-12 07:27N 40°38' W 074°04'0 0.0
2017-Oct-12 07:00N 40°38' W 074°04'0 0.0
2017-Oct-12 06:18N 40°38' W 074°04'0 0.0
2017-Oct-12 05:57N 40°38' W 074°04'0 0.0
2017-Oct-12 05:29N 40°38' W 074°04'0 0.0
2017-Oct-12 04:59N 40°38' W 074°04'0 0.0
2017-Oct-12 04:30N 40°38' W 074°04'0 0.0
2017-Oct-12 04:00N 40°38' W 074°04'0 0.0
2017-Oct-12 03:29N 40°38' W 074°04'0 0.0
2017-Oct-12 02:59N 40°38' W 074°04'0 0.0
2017-Oct-12 02:31N 40°38' W 074°04'0 0.0
2017-Oct-12 02:00N 40°38' W 074°04'0 0.0
2017-Oct-12 01:30N 40°38' W 074°04'0 0.0
2017-Oct-12 00:59N 40°38' W 074°04'0 0.0
2017-Oct-12 00:30N 40°38' W 074°04'0 0.0
2017-Oct-11 23:59N 40°38' W 074°04'0 0.0
2017-Oct-11 23:30N 40°38' W 074°04'0 0.0
2017-Oct-11 22:59N 40°38' W 074°04'0 0.0
2017-Oct-11 22:30N 40°38' W 074°04'0 0.0
2017-Oct-11 22:00N 40°38' W 074°04'0 0.0
2017-Oct-11 21:27N 40°38' W 074°04'0 0.0
2017-Oct-11 20:56N 40°38' W 074°04'0 0.0
2017-Oct-11 20:30N 40°38' W 074°04'0 0.0
2017-Oct-11 20:00N 40°38' W 074°04'0 0.0
2017-Oct-11 19:30N 40°38' W 074°04'0 0.0
2017-Oct-11 19:00N 40°38' W 074°04'0 0.0
2017-Oct-11 18:30N 40°38' W 074°04'0 0.0
2017-Oct-11 18:01N 40°38' W 074°04'0 0.0
2017-Oct-11 17:30N 40°38' W 074°04'0 0.0
2017-Oct-11 17:00N 40°38' W 074°04'0 0.0
2017-Oct-10 20:13N 40°38' W 074°04'2 7.0
2017-Oct-10 20:00N 40°40' W 074°03'3 6.5
2017-Oct-10 19:31N 40°43' W 074°03'0 0.5
2017-Oct-10 19:01N 40°43' W 074°03'0 0.0
2017-Oct-10 18:30N 40°43' W 074°03'0 0.0
2017-Oct-10 18:01N 40°43' W 074°03'1 1.1
2017-Oct-10 17:31N 40°43' W 074°02'3 6.6
2017-Oct-10 17:00N 40°39' W 074°04'  
Track history (hours):
 
Tides and Currents Weather Stations Pressure Air Temp Water Temp Dewpoint Dewpoint Depression Visibility Wind Speed Wind Dir Waves Ship Positions

Gabby Miller

Owner: Miller's Launch, Staten Island, NY. More information available from US FCC via Universal Licensing System and Coast Guard Vessel Documentation Center.

Last reported at 2017-Oct-19 20:00 UTC. Time now 2017-Oct-20 14:14 UTC.
Position N 40°39' W 074°03'.

Length 5 m; draft 2 m.

Type: Other ship. MMSI: 367338610.

Date/timePositionNaut miles runAvg speedWind from/ knotsBaromVisibWave heightAir tempDewpointWater temp
2017-Oct-19 20:00N 40°39' W 074°03'2 4.6
2017-Oct-19 19:30N 40°40' W 074°01'0 0.1
2017-Oct-19 19:00N 40°40' W 074°01'0 0.0
2017-Oct-19 18:30N 40°40' W 074°01'0 0.0
2017-Oct-19 18:00N 40°40' W 074°01'0 0.0
2017-Oct-19 17:31N 40°40' W 074°01'0 0.0
2017-Oct-19 17:00N 40°40' W 074°01'1 2.9
2017-Oct-19 16:30N 40°41' W 074°02'1 2.9
2017-Oct-19 16:00N 40°43' W 074°01'2 3.5
2017-Oct-19 15:31N 40°41' W 074°02'3 6.0
2017-Oct-19 15:00N 40°38' W 074°04'0 0.7
2017-Oct-19 14:28N 40°38' W 074°04'0 0.1
2017-Oct-19 14:00N 40°38' W 074°04'0 0.9
2017-Oct-19 13:29N 40°39' W 074°04'3 6.8
2017-Oct-19 13:00N 40°41' W 074°02'2 4.1
2017-Oct-19 12:30N 40°44' W 074°02'0 0.2
2017-Oct-19 12:01N 40°44' W 074°02'0 0.5
2017-Oct-19 11:30N 40°43' W 074°02'3 5.9
2017-Oct-19 11:00N 40°41' W 074°02'3 5.2
2017-Oct-19 10:30N 40°38' W 074°04'0 0.0
2017-Oct-18 18:52N 40°38' W 074°04'0 0.1
2017-Oct-18 18:29N 40°38' W 074°04'1 2.7
2017-Oct-18 18:00N 40°39' W 074°04'2 4.4
2017-Oct-18 17:30N 40°41' W 074°03'2 4.7
2017-Oct-18 17:00N 40°39' W 074°04'1 1.7
2017-Oct-18 16:21N 40°38' W 074°04'0 0.0
2017-Oct-18 15:58N 40°38' W 074°04'1 2.5
2017-Oct-18 15:30N 40°39' W 074°04'2 4.6
2017-Oct-18 15:00N 40°41' W 074°03'3 3.4
2017-Oct-18 14:00N 40°38' W 074°04'0 0.2
2017-Oct-18 13:30N 40°38' W 074°04'3 5.9
2017-Oct-18 13:00N 40°41' W 074°03'1 1.2
2017-Oct-18 12:30N 40°41' W 074°03'2 3.3
2017-Oct-18 12:01N 40°40' W 074°03'2 0.1
2017-Oct-17 14:55N 40°38' W 074°04'0 1.1
2017-Oct-17 14:28N 40°39' W 074°04'3 5.6
2017-Oct-17 14:00N 40°41' W 074°03'1 2.3
2017-Oct-17 13:29N 40°42' W 074°04'1 1.9
2017-Oct-17 13:00N 40°41' W 074°03'0 0.0
2017-Oct-17 12:30N 40°41' W 074°03'1 1.9
2017-Oct-17 12:00N 40°42' W 074°04'2 3.9
2017-Oct-17 11:30N 40°40' W 074°03'2 4.1
2017-Oct-17 11:00N 40°38' W 074°04'0 0.0
2017-Oct-16 22:51N 40°38' W 074°04'1 4.4
2017-Oct-16 22:31N 40°40' W 074°04'3 6.2
2017-Oct-16 22:01N 40°42' W 074°02'1 2.4
2017-Oct-16 21:31N 40°43' W 074°02'0 0.2
2017-Oct-16 21:00N 40°43' W 074°02'0 0.0
2017-Oct-16 20:31N 40°43' W 074°02'0 0.0
2017-Oct-16 20:01N 40°43' W 074°02'0 0.0
2017-Oct-16 19:31N 40°43' W 074°02'0 0.2
2017-Oct-16 19:01N 40°43' W 074°02'0 0.3
2017-Oct-16 18:30N 40°43' W 074°02'0 0.0
2017-Oct-16 18:01N 40°43' W 074°02'0 0.1
2017-Oct-16 17:31N 40°44' W 074°02'2 4.1
2017-Oct-16 17:01N 40°42' W 074°03'0 0.3
2017-Oct-16 16:30N 40°42' W 074°03'0 0.0
2017-Oct-16 16:01N 40°41' W 074°03'0 0.0
2017-Oct-16 15:31N 40°41' W 074°03'0 0.0
2017-Oct-16 15:01N 40°42' W 074°03'3 3.1
2017-Oct-16 13:54N 40°38' W 074°04'0 0.0
2017-Oct-14 16:54N 40°38' W 074°04'0 0.0
2017-Oct-14 16:30N 40°38' W 074°04'0 0.0
2017-Oct-14 16:00N 40°38' W 074°04'0 0.0
2017-Oct-14 15:30N 40°38' W 074°04'0 0.0
2017-Oct-14 15:00N 40°38' W 074°04'0 0.0
2017-Oct-14 14:30N 40°38' W 074°04'0 0.0
2017-Oct-14 14:00N 40°38' W 074°04'0 0.0
2017-Oct-14 13:30N 40°38' W 074°04'0 0.0
2017-Oct-14 13:00N 40°38' W 074°04'0 0.0
2017-Oct-14 12:28N 40°38' W 074°04'0 0.0
2017-Oct-14 11:58N 40°38' W 074°04'0 0.0
2017-Oct-14 11:30N 40°38' W 074°04'0 0.0
2017-Oct-14 10:59N 40°38' W 074°04'0 0.0
2017-Oct-14 10:21N 40°38' W 074°04'0 0.0
2017-Oct-14 09:50N 40°38' W 074°04'0 0.0
2017-Oct-14 09:28N 40°38' W 074°04'0 0.0
2017-Oct-14 08:57N 40°38' W 074°04'0 0.0
2017-Oct-14 08:30N 40°38' W 074°04'0 0.0
2017-Oct-14 08:00N 40°38' W 074°04'0 0.0
2017-Oct-14 07:30N 40°38' W 074°04'0 0.0
2017-Oct-14 07:00N 40°38' W 074°04'0 0.0
2017-Oct-14 06:15N 40°38' W 074°04'0 0.0
2017-Oct-14 05:59N 40°38' W 074°04'0 0.0
2017-Oct-14 05:29N 40°38' W 074°04'0 0.0
2017-Oct-14 04:59N 40°38' W 074°04'0 0.0
2017-Oct-14 04:30N 40°38' W 074°04'0 0.0
2017-Oct-14 04:00N 40°38' W 074°04'0 0.0
2017-Oct-14 03:29N 40°38' W 074°04'0 0.0
2017-Oct-14 02:58N 40°38' W 074°04'0 0.0
2017-Oct-14 02:26N 40°38' W 074°04'0 0.0
2017-Oct-14 01:57N 40°38' W 074°04'0 0.0
2017-Oct-14 01:27N 40°38' W 074°04'0 0.0
2017-Oct-14 00:58N 40°38' W 074°04'0 0.0
2017-Oct-14 00:26N 40°38' W 074°04'0 0.0
2017-Oct-13 23:10N 40°38' W 074°04'0 0.0
2017-Oct-13 22:59N 40°38' W 074°04'0 0.0
2017-Oct-13 22:29N 40°38' W 074°04'0 0.0
2017-Oct-13 21:59N 40°38' W 074°04'0 0.0
2017-Oct-13 21:30N 40°38' W 074°04'0 0.0
2017-Oct-13 20:59N 40°38' W 074°04'0 0.0
2017-Oct-13 20:29N 40°38' W 074°04'0 0.0
2017-Oct-13 20:00N 40°38' W 074°04'0 0.0
2017-Oct-13 19:30N 40°38' W 074°04'0 0.0
2017-Oct-13 18:59N 40°38' W 074°04'0 0.0
2017-Oct-13 18:29N 40°38' W 074°04'0 0.0
2017-Oct-13 17:59N 40°38' W 074°04'0 0.0
2017-Oct-13 17:30N 40°38' W 074°04'0 0.0
2017-Oct-13 17:00N 40°38' W 074°04'0 0.0
2017-Oct-13 16:30N 40°38' W 074°04'0 0.2
2017-Oct-13 16:00N 40°38' W 074°04'0 0.2
2017-Oct-13 15:30N 40°38' W 074°04'0 0.1
2017-Oct-13 14:59N 40°38' W 074°04'0 0.0
2017-Oct-13 14:28N 40°38' W 074°04'0 0.2
2017-Oct-13 14:00N 40°38' W 074°04'0 0.1
2017-Oct-13 13:28N 40°38' W 074°04'0 0.0
2017-Oct-13 12:59N 40°38' W 074°04'0 0.0
2017-Oct-13 12:30N 40°38' W 074°04'0 0.0
2017-Oct-13 09:27N 40°38' W 074°04'0 0.0
2017-Oct-13 09:00N 40°38' W 074°04'0 0.0
2017-Oct-13 08:30N 40°38' W 074°04'0 0.0
2017-Oct-13 08:00N 40°38' W 074°04'0 0.0
2017-Oct-13 07:30N 40°38' W 074°04'0 0.0
2017-Oct-13 07:00N 40°38' W 074°04'0 0.0
2017-Oct-13 06:30N 40°38' W 074°04'0 0.0
2017-Oct-13 06:00N 40°38' W 074°04'0 0.0
2017-Oct-13 05:30N 40°38' W 074°04'0 0.0
2017-Oct-13 05:00N 40°38' W 074°04'0 0.0
2017-Oct-13 04:30N 40°38' W 074°04'0 0.0
2017-Oct-13 03:59N 40°38' W 074°04'0 0.0
2017-Oct-13 03:29N 40°38' W 074°04'0 0.0
2017-Oct-13 03:00N 40°38' W 074°04'0 0.0
2017-Oct-13 02:30N 40°38' W 074°04'0 0.0
2017-Oct-13 01:58N 40°38' W 074°04'0 0.0
2017-Oct-13 01:30N 40°38' W 074°04'0 0.0
2017-Oct-13 00:56N 40°38' W 074°04'0 0.0
2017-Oct-13 00:29N 40°38' W 074°04'0 0.0
2017-Oct-12 23:56N 40°38' W 074°04'0 0.0
2017-Oct-12 23:30N 40°38' W 074°04'0 0.0
2017-Oct-12 23:00N 40°38' W 074°04'0 0.0
2017-Oct-12 22:29N 40°38' W 074°04'0 0.0
2017-Oct-12 21:57N 40°38' W 074°04'0 0.0
2017-Oct-12 21:30N 40°38' W 074°04'0 0.0
2017-Oct-12 21:00N 40°38' W 074°04'0 0.0
2017-Oct-12 20:30N 40°38' W 074°04'0 0.0
2017-Oct-12 20:00N 40°38' W 074°04'0 0.0
2017-Oct-12 19:30N 40°38' W 074°04'0 0.0
2017-Oct-12 19:00N 40°38' W 074°04'0 0.0
2017-Oct-12 18:30N 40°38' W 074°04'0 0.0
2017-Oct-12 18:00N 40°38' W 074°04'0 0.0
2017-Oct-12 17:30N 40°38' W 074°04'0 0.0
2017-Oct-12 17:00N 40°38' W 074°04'0 0.0
2017-Oct-12 16:30N 40°38' W 074°04'0 0.0
2017-Oct-12 16:00N 40°38' W 074°04'0 0.0
2017-Oct-12 15:30N 40°38' W 074°04'0 0.0
2017-Oct-12 14:59N 40°38' W 074°04'0 0.0
2017-Oct-12 14:30N 40°38' W 074°04'0 0.0
2017-Oct-12 14:00N 40°38' W 074°04'0 0.0
2017-Oct-12 13:29N 40°38' W 074°04'0 0.0
2017-Oct-12 12:59N 40°38' W 074°04'0 0.0
2017-Oct-12 12:30N 40°38' W 074°04'0 0.0
2017-Oct-12 12:00N 40°38' W 074°04'0 0.0
2017-Oct-12 11:28N 40°38' W 074°04'0 0.0
2017-Oct-12 10:57N 40°38' W 074°04'0 0.0
2017-Oct-12 10:30N 40°38' W 074°04'0 0.0
2017-Oct-12 09:58N 40°38' W 074°04'0 0.0
2017-Oct-12 09:28N 40°38' W 074°04'0 0.0
2017-Oct-12 08:58N 40°38' W 074°04'0 0.0
2017-Oct-12 08:19N 40°38' W 074°04'0 0.0
2017-Oct-12 07:56N 40°38' W 074°04'0 0.0
2017-Oct-12 07:27N 40°38' W 074°04'0 0.0
2017-Oct-12 07:00N 40°38' W 074°04'0 0.0
2017-Oct-12 06:18N 40°38' W 074°04'0 0.0
2017-Oct-12 05:57N 40°38' W 074°04'0 0.0
2017-Oct-12 05:29N 40°38' W 074°04'0 0.0
2017-Oct-12 04:59N 40°38' W 074°04'0 0.0
2017-Oct-12 04:30N 40°38' W 074°04'0 0.0
2017-Oct-12 04:00N 40°38' W 074°04'0 0.0
2017-Oct-12 03:29N 40°38' W 074°04'0 0.0
2017-Oct-12 02:59N 40°38' W 074°04'0 0.0
2017-Oct-12 02:31N 40°38' W 074°04'0 0.0
2017-Oct-12 02:00N 40°38' W 074°04'0 0.0
2017-Oct-12 01:30N 40°38' W 074°04'0 0.0
2017-Oct-12 00:59N 40°38' W 074°04'0 0.0
2017-Oct-12 00:30N 40°38' W 074°04'0 0.0
2017-Oct-11 23:59N 40°38' W 074°04'0 0.0
2017-Oct-11 23:30N 40°38' W 074°04'0 0.0
2017-Oct-11 22:59N 40°38' W 074°04'0 0.0
2017-Oct-11 22:30N 40°38' W 074°04'0 0.0
2017-Oct-11 22:00N 40°38' W 074°04'0 0.0
2017-Oct-11 21:27N 40°38' W 074°04'0 0.0
2017-Oct-11 20:56N 40°38' W 074°04'0 0.0
2017-Oct-11 20:30N 40°38' W 074°04'0 0.0
2017-Oct-11 20:00N 40°38' W 074°04'0 0.0
2017-Oct-11 19:30N 40°38' W 074°04'0 0.0
2017-Oct-11 19:00N 40°38' W 074°04'0 0.0
2017-Oct-11 18:30N 40°38' W 074°04'0 0.0
2017-Oct-11 18:01N 40°38' W 074°04'0 0.0
2017-Oct-11 17:30N 40°38' W 074°04'0 0.0
2017-Oct-11 17:00N 40°38' W 074°04'0 0.0
2017-Oct-10 20:13N 40°38' W 074°04'2 7.0
2017-Oct-10 20:00N 40°40' W 074°03'3 6.5
2017-Oct-10 19:31N 40°43' W 074°03'0 0.5
2017-Oct-10 19:01N 40°43' W 074°03'0 0.0
2017-Oct-10 18:30N 40°43' W 074°03'0 0.0
2017-Oct-10 18:01N 40°43' W 074°03'1 1.1
2017-Oct-10 17:31N 40°43' W 074°02'3 6.6
2017-Oct-10 17:00N 40°39' W 074°04'  

Dump ship's entire track history